createdAt,value
2018-10-11T00:01:04.520Z,90.60
2018-10-11T00:03:32.592Z,90.80
2018-10-11T00:06:00.756Z,91.10
2018-10-11T00:08:29.210Z,91.20
2018-10-11T00:10:57.336Z,91.20
2018-10-11T00:13:25.392Z,91.10
2018-10-11T00:15:53.495Z,91.20
2018-10-11T00:18:21.553Z,91.00
2018-10-11T00:20:49.659Z,91.00
2018-10-11T00:23:17.752Z,90.90
2018-10-11T00:25:46.178Z,90.90
2018-10-11T00:28:14.332Z,90.90
2018-10-11T00:30:42.748Z,91.00
2018-10-11T00:33:10.775Z,91.00
2018-10-11T00:35:38.873Z,91.10
2018-10-11T00:38:06.940Z,91.40
2018-10-11T00:40:35.533Z,91.40
2018-10-11T00:43:03.629Z,91.30
2018-10-11T00:45:31.734Z,91.00
2018-10-11T00:47:59.824Z,90.70
2018-10-11T00:50:27.931Z,90.00
2018-10-11T00:52:57.206Z,89.20
2018-10-11T00:55:25.300Z,89.20
2018-10-11T00:57:54.284Z,90.00
2018-10-11T01:00:22.504Z,90.10
2018-10-11T01:02:50.815Z,90.40
2018-10-11T01:05:18.890Z,90.40
2018-10-11T01:07:46.951Z,90.50
2018-10-11T01:10:15.124Z,90.80
2018-10-11T01:12:43.183Z,90.80
2018-10-11T01:15:11.279Z,91.00
2018-10-11T01:17:39.362Z,91.00
2018-10-11T01:20:07.532Z,91.10
2018-10-11T01:22:35.630Z,91.10
2018-10-11T01:25:03.808Z,91.20
2018-10-11T01:27:31.956Z,91.20
2018-10-11T01:30:00.116Z,91.40
2018-10-11T01:32:28.604Z,91.60
2018-10-11T01:34:57.076Z,91.70
2018-10-11T01:37:25.609Z,91.70
2018-10-11T01:39:53.698Z,91.70
2018-10-11T01:42:21.848Z,91.60
2018-10-11T01:44:49.923Z,91.70
2018-10-11T01:47:18.036Z,91.70
2018-10-11T01:49:46.107Z,91.90
2018-10-11T01:52:14.269Z,91.90
2018-10-11T01:54:42.790Z,91.90
2018-10-11T01:57:11.300Z,92.00
2018-10-11T01:59:39.451Z,92.30
2018-10-11T02:02:07.568Z,92.10
2018-10-11T02:04:35.765Z,92.40
2018-10-11T02:07:04.036Z,92.40
2018-10-11T02:09:32.156Z,92.40
2018-10-11T02:12:00.217Z,92.30
2018-10-11T02:14:28.456Z,92.30
2018-10-11T02:16:57.363Z,92.30
2018-10-11T02:19:25.535Z,92.20
2018-10-11T02:21:53.626Z,92.10
2018-10-11T02:24:21.749Z,92.50
2018-10-11T02:26:49.827Z,92.80
2018-10-11T02:29:18.292Z,93.00
2018-10-11T02:31:46.422Z,92.40
2018-10-11T02:34:14.687Z,92.40
2018-10-11T02:36:42.753Z,92.40
2018-10-11T02:39:11.387Z,92.50
2018-10-11T02:41:39.784Z,92.50
2018-10-11T02:44:07.946Z,92.30
2018-10-11T02:46:36.224Z,92.30
2018-10-11T02:49:04.316Z,92.70
2018-10-11T02:51:32.450Z,92.40
2018-10-11T02:54:00.519Z,92.50
2018-10-11T02:56:28.630Z,92.30
2018-10-11T02:59:08.914Z,92.40
2018-10-11T03:01:36.973Z,92.50
2018-10-11T03:04:05.848Z,92.50
2018-10-11T03:06:35.220Z,92.40
2018-10-11T03:09:04.693Z,92.80
2018-10-11T03:11:32.791Z,92.90
2018-10-11T03:14:01.003Z,92.80
2018-10-11T03:16:29.194Z,93.00
2018-10-11T03:18:57.356Z,92.80
2018-10-11T03:21:25.824Z,92.60
2018-10-11T03:23:53.957Z,93.00
2018-10-11T03:26:22.094Z,93.00
2018-10-11T03:28:50.164Z,92.90
2018-10-11T03:31:18.253Z,93.00
2018-10-11T03:33:46.342Z,93.70
2018-10-11T03:36:14.432Z,93.20
2018-10-11T03:38:42.520Z,92.90
2018-10-11T03:41:10.613Z,93.00
2018-10-11T03:43:38.712Z,93.30
2018-10-11T03:46:07.070Z,93.20
2018-10-11T03:48:35.192Z,93.30
2018-10-11T03:51:03.294Z,93.40
2018-10-11T03:53:31.777Z,93.40
2018-10-11T03:55:59.971Z,93.40
2018-10-11T03:58:28.184Z,93.60
2018-10-11T04:00:57.279Z,93.60
2018-10-11T04:03:25.362Z,93.30
2018-10-11T04:05:53.459Z,93.40
2018-10-11T04:08:21.539Z,93.40
2018-10-11T04:10:49.603Z,93.40
2018-10-11T04:13:17.677Z,93.50
2018-10-11T04:15:45.749Z,93.30
2018-10-11T04:18:13.825Z,93.30
2018-10-11T04:20:41.941Z,93.40
2018-10-11T04:23:21.756Z,93.50
2018-10-11T04:25:49.987Z,93.60
2018-10-11T04:28:18.070Z,93.50
2018-10-11T04:30:46.186Z,93.60
2018-10-11T04:33:14.556Z,93.60
2018-10-11T04:35:42.636Z,93.50
2018-10-11T04:38:10.777Z,93.50
2018-10-11T04:40:38.931Z,93.50
2018-10-11T04:43:07.383Z,93.50
2018-10-11T04:48:03.382Z,93.20
2018-10-11T04:50:31.439Z,93.40
2018-10-11T04:52:59.536Z,93.40
2018-10-11T04:55:27.714Z,93.40
2018-10-11T04:57:56.008Z,93.30
2018-10-11T05:00:24.365Z,93.30
2018-10-11T05:02:52.527Z,93.30
2018-10-11T05:05:20.697Z,93.50
2018-10-11T05:07:48.788Z,93.50
2018-10-11T05:10:16.927Z,93.50
2018-10-11T05:12:45.032Z,93.60
2018-10-11T05:15:13.100Z,93.50
2018-10-11T05:17:41.717Z,93.60
2018-10-11T05:20:09.846Z,93.70
2018-10-11T05:22:37.920Z,93.90
2018-10-11T05:25:06.024Z,93.80
2018-10-11T05:27:34.117Z,93.60
2018-10-11T05:30:02.198Z,93.70
2018-10-11T05:32:30.657Z,93.90
2018-10-11T05:34:58.935Z,93.90
2018-10-11T05:37:26.996Z,93.90
2018-10-11T05:39:55.340Z,93.90
2018-10-11T05:42:23.721Z,93.60
2018-10-11T05:44:52.296Z,93.80
2018-10-11T05:47:20.400Z,93.70
2018-10-11T05:49:48.530Z,93.80
2018-10-11T05:52:16.598Z,93.80
2018-10-11T05:54:45.010Z,93.80
2018-10-11T05:57:13.078Z,93.80
2018-10-11T05:59:41.161Z,93.80
2018-10-11T06:02:09.325Z,93.80
2018-10-11T06:04:37.420Z,93.90
2018-10-11T06:07:05.615Z,94.10
2018-10-11T06:09:33.703Z,94.00
2018-10-11T06:12:01.855Z,93.90
2018-10-11T06:14:29.909Z,94.30
2018-10-11T06:16:57.994Z,94.00
2018-10-11T06:19:26.121Z,94.10
2018-10-11T06:21:54.228Z,93.90
2018-10-11T06:24:22.570Z,94.00
2018-10-11T06:26:50.681Z,94.00
2018-10-11T06:29:18.789Z,94.00
2018-10-11T06:31:46.872Z,94.10
2018-10-11T06:34:14.965Z,94.00
2018-10-11T06:36:43.098Z,94.00
2018-10-11T06:39:12.028Z,94.00
2018-10-11T06:41:40.139Z,93.90
2018-10-11T06:44:08.749Z,93.90
2018-10-11T06:46:37.225Z,94.00
2018-10-11T06:49:05.780Z,93.70
2018-10-11T06:51:34.188Z,94.10
2018-10-11T06:54:02.269Z,94.20
2018-10-11T06:56:30.399Z,94.30
2018-10-11T06:58:58.529Z,94.30
2018-10-11T07:01:28.333Z,94.20
2018-10-11T07:03:56.443Z,94.20
2018-10-11T07:06:24.536Z,94.40
2018-10-11T07:08:52.725Z,94.00
2018-10-11T07:11:20.827Z,94.30
2018-10-11T07:13:49.048Z,93.60
2018-10-11T07:16:17.250Z,94.00
2018-10-11T07:18:45.343Z,93.50
2018-10-11T07:28:37.112Z,93.00
2018-10-11T07:31:05.182Z,92.80
2018-10-11T07:38:29.073Z,92.60
2018-10-11T07:40:57.812Z,92.40
2018-10-11T07:55:48.867Z,92.30
2018-10-11T07:58:17.342Z,92.70
2018-10-11T08:00:45.503Z,92.90
2018-10-11T08:03:13.604Z,92.60
2018-10-11T08:05:42.115Z,92.20
2018-10-11T08:08:10.821Z,91.80
2018-10-11T08:10:39.194Z,91.50
2018-10-11T08:13:07.152Z,90.80
2018-10-11T08:15:35.244Z,90.30
2018-10-11T08:18:03.660Z,89.10
2018-10-11T08:20:31.477Z,88.20
2018-10-11T08:22:59.534Z,87.60
2018-10-11T08:25:28.044Z,87.80
2018-10-11T08:27:56.113Z,85.60
2018-10-11T08:30:24.184Z,85.30
2018-10-11T08:32:52.267Z,83.90
2018-10-11T08:35:20.441Z,84.40
2018-10-11T08:37:49.064Z,81.50
2018-10-11T08:40:17.093Z,81.60
2018-10-11T08:42:45.633Z,81.70
2018-10-11T08:45:13.726Z,79.40
2018-10-11T08:47:41.808Z,75.40
2018-10-11T08:50:09.899Z,71.20
2018-10-11T08:52:37.992Z,64.10
2018-10-11T08:55:06.086Z,59.80
2018-10-11T08:57:34.179Z,56.90
2018-10-11T09:00:02.281Z,47.40
2018-10-11T09:02:30.469Z,45.00
2018-10-11T09:04:58.610Z,45.20
2018-10-11T09:07:26.644Z,41.50
2018-10-11T09:09:54.718Z,39.40
2018-10-11T09:12:22.864Z,38.30
2018-10-11T09:14:50.938Z,37.70
2018-10-11T09:17:19.090Z,36.90
2018-10-11T09:19:47.120Z,38.00
2018-10-11T09:22:15.202Z,38.70
2018-10-11T09:24:43.512Z,37.00
2018-10-11T09:29:39.425Z,35.60
2018-10-11T09:34:35.942Z,35.70
2018-10-11T09:37:04.240Z,35.20
2018-10-11T09:39:32.323Z,34.90
2018-10-11T09:42:00.484Z,32.80
2018-10-11T09:44:28.559Z,34.00
2018-10-11T09:46:56.632Z,34.40
2018-10-11T09:49:24.694Z,35.90
2018-10-11T09:51:52.791Z,33.60
2018-10-11T09:54:21.183Z,32.30
2018-10-11T09:57:26.716Z,31.80
2018-10-11T09:59:55.201Z,30.30
2018-10-11T10:02:24.705Z,29.80
2018-10-11T10:05:00.579Z,29.60
2018-10-11T10:07:28.704Z,29.50
2018-10-11T10:09:56.794Z,28.30
2018-10-11T10:12:24.871Z,28.60
2018-10-11T10:14:53.352Z,28.90
2018-10-11T10:17:21.621Z,28.20
2018-10-11T10:19:49.711Z,27.80
2018-10-11T10:22:17.780Z,28.10
2018-10-11T10:24:45.889Z,28.10
2018-10-11T10:27:14.046Z,27.70
2018-10-11T10:29:42.909Z,27.20
2018-10-11T10:32:11.323Z,28.00
2018-10-11T10:34:39.405Z,27.90
2018-10-11T10:37:07.460Z,26.70
2018-10-11T10:39:35.552Z,26.50
2018-10-11T10:42:03.608Z,26.80
2018-10-11T10:46:59.820Z,27.80
2018-10-11T10:49:27.981Z,27.00
2018-10-11T10:51:56.110Z,27.50
2018-10-11T10:54:27.068Z,27.20
2018-10-11T10:56:55.499Z,27.40
2018-10-11T10:59:23.780Z,27.80
2018-10-11T11:01:51.977Z,27.20
2018-10-11T11:04:20.109Z,28.20
2018-10-11T11:06:48.224Z,27.50
2018-10-11T11:09:16.353Z,28.00
2018-10-11T11:11:44.788Z,27.30
2018-10-11T11:14:13.927Z,26.40
2018-10-11T11:16:42.535Z,26.90
2018-10-11T11:19:11.001Z,27.00
2018-10-11T11:21:39.340Z,27.30
2018-10-11T11:24:08.356Z,27.10
2018-10-11T11:26:36.488Z,26.10
2018-10-11T11:29:04.601Z,26.70
2018-10-11T11:31:32.978Z,26.60
2018-10-11T11:34:01.696Z,27.20
2018-10-11T11:36:29.816Z,26.80
2018-10-11T11:38:58.344Z,26.50
2018-10-11T11:41:26.687Z,26.10
2018-10-11T11:43:54.786Z,25.10
2018-10-11T11:46:22.936Z,24.50
2018-10-11T11:48:51.062Z,24.00
2018-10-11T11:51:19.190Z,24.50
2018-10-11T11:53:47.340Z,24.80
2018-10-11T11:56:15.455Z,25.00
2018-10-11T12:18:29.259Z,23.10
2018-10-11T12:20:58.278Z,25.10
2018-10-11T12:23:26.493Z,25.60
2018-10-11T12:25:54.887Z,25.90
2018-10-11T12:28:23.511Z,26.40
2018-10-11T12:30:51.581Z,26.80
2018-10-11T12:33:19.701Z,27.80
2018-10-11T12:35:47.968Z,27.70
2018-10-11T12:38:16.176Z,28.00
2018-10-11T12:40:44.373Z,27.50
2018-10-11T12:43:12.500Z,27.90
2018-10-11T12:45:41.116Z,27.60
2018-10-11T12:48:12.273Z,27.80
2018-10-11T12:50:40.380Z,27.70
2018-10-11T12:53:08.557Z,27.90
2018-10-11T12:55:37.047Z,28.00
2018-10-11T12:58:05.631Z,27.60
2018-10-11T13:00:33.762Z,27.80
2018-10-11T13:03:02.009Z,27.20
2018-10-11T13:05:30.059Z,28.10
2018-10-11T13:07:59.503Z,27.50
2018-10-11T13:10:27.801Z,26.90
2018-10-11T13:13:08.107Z,25.90
2018-10-11T13:15:25.211Z,25.70
2018-10-11T13:17:53.328Z,25.90
2018-10-11T13:20:28.040Z,24.90
2018-10-11T13:22:56.203Z,24.40
2018-10-11T13:25:24.335Z,24.60
2018-10-11T13:27:52.485Z,24.90
2018-10-11T13:30:20.612Z,25.30
2018-10-11T13:32:48.833Z,25.00
2018-10-11T13:35:17.048Z,24.70
2018-10-11T13:37:45.213Z,24.90
2018-10-11T13:40:13.341Z,25.10
2018-10-11T13:42:41.551Z,25.50
2018-10-11T13:45:09.950Z,25.10
2018-10-11T13:47:42.327Z,25.30
2018-10-11T13:50:06.763Z,26.00
2018-10-11T13:52:34.959Z,25.70
2018-10-11T13:55:08.121Z,25.50
2018-10-11T13:57:31.470Z,25.70
2018-10-11T13:59:59.404Z,26.30
2018-10-11T14:02:28.014Z,26.30
2018-10-11T14:04:56.136Z,26.50
2018-10-11T14:07:24.288Z,26.60
2018-10-11T14:09:52.587Z,26.60
2018-10-11T14:12:20.984Z,26.10
2018-10-11T14:14:49.174Z,26.40
2018-10-11T14:17:17.629Z,26.20
2018-10-11T14:22:13.903Z,28.20
2018-10-11T14:24:42.056Z,28.60
2018-10-11T14:27:10.181Z,29.50
2018-10-11T14:29:38.428Z,29.20
2018-10-11T14:32:06.957Z,30.70
2018-10-11T14:34:35.290Z,31.60
2018-10-11T14:37:03.437Z,32.30
2018-10-11T14:39:31.517Z,32.90
2018-10-11T14:41:59.684Z,33.30
2018-10-11T14:44:28.215Z,33.60
2018-10-11T14:46:56.430Z,34.40
2018-10-11T14:49:24.548Z,34.90
2018-10-11T14:51:52.713Z,34.10
2018-10-11T14:54:20.840Z,35.50
2018-10-11T14:56:49.221Z,35.00
2018-10-11T14:59:17.347Z,36.10
2018-10-11T15:01:45.506Z,35.50
2018-10-11T15:04:13.653Z,36.40
2018-10-11T15:06:41.784Z,36.70
2018-10-11T15:09:10.352Z,39.60
2018-10-11T15:11:38.744Z,42.10
2018-10-11T15:14:06.852Z,44.60
2018-10-11T15:16:34.987Z,45.60
2018-10-11T15:19:03.110Z,43.20
2018-10-11T15:21:31.243Z,41.90
2018-10-11T15:23:59.475Z,39.10
2018-10-11T15:26:27.556Z,40.00
2018-10-11T15:28:55.836Z,40.70
2018-10-11T15:31:24.030Z,40.90
2018-10-11T15:33:52.256Z,41.90
2018-10-11T15:36:20.722Z,40.10
2018-10-11T15:38:48.845Z,41.20
2018-10-11T15:41:17.209Z,41.40
2018-10-11T15:43:45.369Z,43.40
2018-10-11T15:46:13.860Z,41.60
2018-10-11T15:48:41.979Z,44.30
2018-10-11T15:51:10.096Z,42.10
2018-10-11T15:53:38.253Z,41.70
2018-10-11T15:56:06.651Z,42.00
2018-10-11T15:58:35.254Z,42.60
2018-10-11T16:01:03.264Z,42.90
2018-10-11T16:03:31.369Z,42.70
2018-10-11T16:05:59.500Z,43.10
2018-10-11T16:08:27.659Z,43.40
2018-10-11T16:10:55.768Z,43.00
2018-10-11T16:13:24.008Z,43.60
2018-10-11T16:15:52.130Z,44.00
2018-10-11T16:18:20.245Z,44.00
2018-10-11T16:20:48.385Z,44.50
2018-10-11T16:23:16.506Z,44.60
2018-10-11T16:25:44.636Z,44.00
2018-10-11T16:28:12.753Z,44.70
2018-10-11T16:30:40.872Z,46.30
2018-10-11T16:33:09.047Z,45.10
2018-10-11T16:35:37.156Z,46.40
2018-10-11T16:38:05.277Z,44.40
2018-10-11T16:40:33.399Z,44.40
2018-10-11T16:43:01.524Z,45.10
2018-10-11T16:45:29.640Z,44.30
2018-10-11T16:47:57.766Z,45.10
2018-10-11T16:50:25.950Z,45.40
2018-10-11T16:52:54.106Z,44.80
2018-10-11T16:55:22.221Z,45.10
2018-10-11T16:57:50.415Z,45.10
2018-10-11T17:00:18.615Z,45.80
2018-10-11T17:02:46.829Z,45.00
2018-10-11T17:05:14.932Z,45.70
2018-10-11T17:07:43.187Z,47.20
2018-10-11T17:10:11.299Z,45.60
2018-10-11T17:12:39.706Z,45.60
2018-10-11T17:15:08.402Z,45.70
2018-10-11T17:17:36.520Z,45.60
2018-10-11T17:20:04.659Z,45.30
2018-10-11T17:22:33.096Z,45.50
2018-10-11T17:25:01.250Z,45.70
2018-10-11T17:27:29.382Z,45.30
2018-10-11T17:29:57.576Z,45.40
2018-10-11T17:32:25.889Z,45.30
2018-10-11T17:34:54.025Z,45.30
2018-10-11T17:37:22.176Z,45.60
2018-10-11T17:39:50.313Z,45.70
2018-10-11T17:42:18.594Z,46.00
2018-10-11T17:44:46.710Z,45.50
2018-10-11T17:47:14.832Z,45.90
2018-10-11T17:49:42.971Z,46.30
2018-10-11T17:52:11.112Z,46.10
2018-10-11T17:54:43.477Z,46.50
2018-10-11T17:57:11.585Z,47.10
2018-10-11T17:59:39.996Z,46.90
2018-10-11T18:02:08.123Z,47.10
2018-10-11T18:04:36.343Z,47.50
2018-10-11T18:07:04.476Z,47.70
2018-10-11T18:09:32.595Z,48.10
2018-10-11T18:12:00.740Z,48.30
2018-10-11T18:14:28.863Z,48.20
2018-10-11T18:16:56.985Z,48.00
2018-10-11T18:19:25.185Z,49.10
2018-10-11T18:21:53.324Z,49.90
2018-10-11T18:24:21.785Z,50.20
2018-10-11T18:26:49.961Z,50.40
2018-10-11T18:29:18.115Z,51.10
2018-10-11T18:31:46.736Z,51.70
2018-10-11T18:34:14.913Z,51.90
2018-10-11T18:36:43.032Z,52.60
2018-10-11T18:39:13.101Z,52.60
2018-10-11T18:41:41.825Z,53.50
2018-10-11T18:44:10.361Z,54.30
2018-10-11T18:46:38.477Z,54.80
2018-10-11T18:49:06.960Z,54.60
2018-10-11T18:51:35.102Z,55.00
2018-10-11T18:54:03.232Z,55.90
2018-10-11T18:56:31.364Z,56.20
2018-10-11T18:58:59.540Z,56.10
2018-10-11T19:01:28.020Z,56.60
2018-10-11T19:03:56.160Z,56.10
2018-10-11T19:06:24.303Z,55.90
2018-10-11T19:08:52.440Z,55.50
2018-10-11T19:11:20.579Z,55.90
2018-10-11T19:13:48.962Z,56.40
2018-10-11T19:16:17.092Z,56.90
2018-10-11T19:18:45.219Z,56.30
2018-10-11T19:21:13.637Z,56.50
2018-10-11T19:23:41.772Z,56.50
2018-10-11T19:26:09.892Z,56.40
2018-10-11T19:28:38.055Z,55.80
2018-10-11T19:31:06.198Z,55.30
2018-10-11T19:33:34.668Z,55.50
2018-10-11T19:36:02.984Z,54.70
2018-10-11T19:38:31.540Z,54.50
2018-10-11T19:40:59.699Z,54.10
2018-10-11T19:43:27.908Z,55.00
2018-10-11T19:45:56.035Z,55.00
2018-10-11T19:48:24.239Z,54.10
2018-10-11T19:50:52.332Z,54.30
2018-10-11T19:55:48.788Z,54.60
2018-10-11T20:00:44.882Z,54.60
2018-10-11T20:03:13.001Z,54.70
2018-10-11T20:05:41.650Z,55.20
2018-10-11T20:08:09.844Z,55.40
2018-10-11T20:13:06.091Z,55.70
2018-10-11T20:55:02.329Z,57.80
2018-10-11T20:57:30.486Z,57.80
2018-10-11T21:02:27.422Z,57.60
2018-10-11T21:12:19.349Z,58.30
2018-10-11T21:19:43.291Z,57.80
2018-10-11T21:22:11.429Z,58.00
2018-10-11T21:27:07.675Z,58.30
2018-10-11T21:34:31.664Z,58.40
2018-10-11T21:36:59.998Z,58.80
2018-10-11T21:39:28.495Z,59.30
2018-10-11T21:41:56.744Z,59.30
2018-10-11T21:44:24.926Z,59.90
2018-10-11T21:46:53.039Z,60.00
2018-10-11T21:49:21.159Z,61.60
2018-10-11T21:51:49.294Z,62.30
2018-10-11T21:54:17.543Z,63.80
2018-10-11T21:56:45.721Z,64.10
2018-10-11T21:59:13.835Z,63.50
2018-10-11T22:01:41.990Z,62.90
2018-10-11T22:04:10.199Z,62.60
2018-10-11T22:06:38.345Z,62.50
2018-10-11T22:09:06.999Z,62.20
2018-10-11T22:11:35.124Z,61.20
2018-10-11T22:14:03.288Z,61.70
2018-10-11T22:16:31.576Z,62.40
2018-10-11T22:18:59.717Z,63.30
2018-10-11T22:21:27.948Z,63.60
2018-10-11T22:23:56.105Z,63.60
2018-10-11T22:26:24.238Z,63.50
2018-10-11T22:28:52.376Z,63.30
2018-10-11T22:31:20.505Z,63.50
2018-10-11T22:33:48.701Z,63.30
2018-10-11T22:36:16.917Z,62.90
2018-10-11T22:38:45.057Z,63.60
2018-10-11T22:41:13.172Z,63.30
2018-10-11T22:43:42.320Z,63.90
2018-10-11T22:46:10.900Z,64.00
2018-10-11T22:48:39.016Z,63.70
2018-10-11T22:51:07.178Z,62.90
2018-10-11T22:53:35.320Z,62.40
2018-10-11T22:56:03.460Z,63.00
2018-10-11T22:58:31.599Z,63.20
2018-10-11T23:00:59.947Z,63.20
2018-10-11T23:03:28.068Z,62.40
2018-10-11T23:05:56.254Z,62.20
2018-10-11T23:08:24.465Z,62.60
2018-10-11T23:10:52.590Z,62.70
2018-10-11T23:13:20.724Z,63.00
2018-10-11T23:15:48.886Z,62.60
2018-10-11T23:18:17.041Z,62.50
2018-10-11T23:20:45.212Z,62.70
2018-10-11T23:23:13.368Z,62.70
2018-10-11T23:25:41.495Z,63.10
2018-10-11T23:28:09.627Z,63.00
2018-10-11T23:30:37.991Z,64.30
2018-10-11T23:33:06.120Z,62.90
2018-10-11T23:35:34.256Z,63.30
2018-10-11T23:38:02.411Z,63.70
2018-10-11T23:40:30.579Z,64.40
2018-10-11T23:42:58.812Z,65.70
2018-10-11T23:45:26.935Z,64.40
2018-10-11T23:47:55.082Z,68.40
2018-10-11T23:50:23.197Z,68.10
2018-10-11T23:52:51.336Z,68.20
2018-10-11T23:55:19.493Z,68.90
2018-10-11T23:57:47.616Z,68.30
